CheckWX is a tool to help pilots better visualize weather data.  It is not intended as a substitute for an official pre-flight weather briefing.

00:40:42 UTC

ORMM TAF
Basrah International Airport
Basrah, Iraq
TAF ORMM 262200Z 2700/2724 10005KT 8000 TEMPO 2704/2710 12010KT 6000 -SHRA FEW040 BKN100

Mar-27@
00:00 UTC

Mar-27 @ 00:00 UTC

Mar-28@
00:00 UTC

Mar-28 @ 00:00 UTC

TAF ORMM 262200Z 2700/2724 10005KT 8000
Wind
  • 100° at 5 KTS

Mar-27@
04:00 UTC

Mar-27 @ 04:00 UTC

Mar-27@
10:00 UTC

Mar-27 @ 10:00 UTC

TEMPO 2704/2710 12010KT 6000 -SHRA FEW040 BKN100

Temporary

Temporary Changes expected for less than half the time period

Wind
  • 120° at 10 KTS
Conditions
Light Rain
Cloud Levels
  • Few at 4,000' AGL
  • Broken at 10,000' AGL